This is the latest recevied weather packets stored in our database for station/object IN3MWE-10. If no packets are shown the sender has not sent any weather packets the latest 10 day(s).
| Time | Temp. | Humidity | Pressure | Rain* | Wind** | Luminosity | Snow |
|---|---|---|---|---|---|---|---|
| 1787394018 | 26.11° C | 48% | 979.2 hPa | - | - | - | - |
| 1787393118 | 25° C | 53% | 979.5 hPa | - | - | - | - |
| 1787392218 | 25.56° C | 52% | 979.8 hPa | - | - | - | - |
| 1787391318 | 26.11° C | 46% | 979.9 hPa | - | - | - | - |
| 1787390418 | 27.78° C | 45% | 980 hPa | - | - | - | - |
| 1787389518 | 25° C | 54% | 980.3 hPa | - | - | - | - |
| 1787388617 | 23.33° C | 55% | 980.3 hPa | - | - | - | - |
| 1787387717 | 25.56° C | 50% | 980.3 hPa | - | - | - | - |
| 1787386817 | 26.11° C | 51% | 980.4 hPa | - | - | - | - |
| 1787385917 | 23.89° C | 60% | 980.7 hPa | - | - | - | - |
| 1787385017 | 22.78° C | 66% | 980.8 hPa | - | - | - | - |
| 1787384117 | 18.89° C | 86% | 981 hPa | - | - | - | - |
| 1787383217 | 18.33° C | 89% | 980.9 hPa | - | - | - | - |
| 1787382316 | 17.22° C | 95% | 980.9 hPa | - | - | - | - |
| 1787381416 | 16.67° C | 96% | 980.8 hPa | - | - | - | - |
| 1787380516 | 16.67° C | 100% | 980.9 hPa | - | - | - | - |
| 1787379616 | 16.67° C | 99% | 980.9 hPa | - | - | - | - |
| 1787378716 | 15.56° C | 100% | 980.7 hPa | - | - | - | - |
| 1787377816 | 15.56° C | 100% | 980.7 hPa | - | - | - | - |
| 1787376916 | 15° C | 100% | 980.7 hPa | - | - | - | - |
| 1787376015 | 14.44° C | 100% | 980.6 hPa | - | - | - | - |
| 1787375115 | 14.44° C | 100% | 980.4 hPa | - | - | - | - |
| 1787374215 | 13.89° C | 100% | 980.5 hPa | - | - | - | - |
| 1787373315 | 13.89° C | 100% | 980.1 hPa | - | - | - | - |
| 1787372415 | 13.89° C | 100% | 980 hPa | - | - | - | - |
* Rain since midnight (hover to see other rain measurements)
** Current wind speed in m/s (hover to see current wind gust speed)